sensor_id;sensor_type;location;lat;lon;timestamp;P1;durP1;ratioP1;P2;durP2;ratioP2
73632;SDS011;61927;50.080;14.418;2022-08-25T00:00:17;22.77;;;11.65;;
73632;SDS011;61927;50.080;14.418;2022-08-25T00:03:02;26.17;;;13.95;;
73632;SDS011;61927;50.080;14.418;2022-08-25T00:05:28;27.10;;;12.00;;
73632;SDS011;61927;50.080;14.418;2022-08-25T00:07:55;26.55;;;11.77;;
73632;SDS011;61927;50.080;14.418;2022-08-25T00:10:21;25.70;;;11.27;;
73632;SDS011;61927;50.080;14.418;2022-08-25T00:12:47;23.45;;;10.95;;
73632;SDS011;61927;50.080;14.418;2022-08-25T00:15:12;18.95;;;10.63;;
73632;SDS011;61927;50.080;14.418;2022-08-25T00:17:38;23.25;;;11.80;;
73632;SDS011;61927;50.080;14.418;2022-08-25T00:20:04;26.17;;;10.80;;
73632;SDS011;61927;50.080;14.418;2022-08-25T00:22:30;19.90;;;11.20;;
73632;SDS011;61927;50.080;14.418;2022-08-25T00:24:55;18.33;;;10.93;;
73632;SDS011;61927;50.080;14.418;2022-08-25T00:27:21;25.52;;;11.82;;
73632;SDS011;61927;50.080;14.418;2022-08-25T00:29:46;32.88;;;12.18;;
73632;SDS011;61927;50.080;14.418;2022-08-25T00:32:12;22.85;;;11.43;;
73632;SDS011;61927;50.080;14.418;2022-08-25T00:34:37;19.65;;;10.90;;
73632;SDS011;61927;50.080;14.418;2022-08-25T00:37:04;22.33;;;11.52;;
73632;SDS011;61927;50.080;14.418;2022-08-25T00:39:31;18.50;;;11.15;;
73632;SDS011;61927;50.080;14.418;2022-08-25T00:41:58;22.25;;;11.93;;
73632;SDS011;61927;50.080;14.418;2022-08-25T00:44:25;18.23;;;11.32;;
73632;SDS011;61927;50.080;14.418;2022-08-25T00:46:53;21.75;;;10.60;;
73632;SDS011;61927;50.080;14.418;2022-08-25T00:54:27;15.85;;;10.15;;
73632;SDS011;61927;50.080;14.418;2022-08-25T00:57:05;24.85;;;9.82;;
73632;SDS011;61927;50.080;14.418;2022-08-25T00:59:33;13.90;;;10.05;;
73632;SDS011;61927;50.080;14.418;2022-08-25T01:01:59;13.07;;;9.68;;
73632;SDS011;61927;50.080;14.418;2022-08-25T01:04:26;15.35;;;10.65;;
73632;SDS011;61927;50.080;14.418;2022-08-25T01:06:52;17.63;;;10.70;;
73632;SDS011;61927;50.080;14.418;2022-08-25T01:09:19;15.25;;;9.88;;
73632;SDS011;61927;50.080;14.418;2022-08-25T01:11:45;13.82;;;10.15;;
73632;SDS011;61927;50.080;14.418;2022-08-25T01:14:13;17.70;;;11.32;;
73632;SDS011;61927;50.080;14.418;2022-08-25T01:16:42;16.23;;;10.73;;
73632;SDS011;61927;50.080;14.418;2022-08-25T01:19:08;13.70;;;10.43;;
73632;SDS011;61927;50.080;14.418;2022-08-25T01:21:38;13.85;;;10.65;;
73632;SDS011;61927;50.080;14.418;2022-08-25T01:24:06;16.70;;;11.50;;
73632;SDS011;61927;50.080;14.418;2022-08-25T01:26:35;29.38;;;12.25;;
73632;SDS011;61927;50.080;14.418;2022-08-25T01:29:03;19.08;;;10.95;;
73632;SDS011;61927;50.080;14.418;2022-08-25T01:31:46;19.27;;;10.75;;
73632;SDS011;61927;50.080;14.418;2022-08-25T01:34:13;22.08;;;10.40;;
73632;SDS011;61927;50.080;14.418;2022-08-25T01:36:41;17.63;;;9.05;;
73632;SDS011;61927;50.080;14.418;2022-08-25T01:39:07;16.25;;;10.50;;
73632;SDS011;61927;50.080;14.418;2022-08-25T01:43:59;12.63;;;9.98;;
73632;SDS011;61927;50.080;14.418;2022-08-25T01:46:26;15.30;;;9.15;;
73632;SDS011;61927;50.080;14.418;2022-08-25T01:48:52;14.35;;;9.45;;
73632;SDS011;61927;50.080;14.418;2022-08-25T01:51:19;13.60;;;9.20;;
73632;SDS011;61927;50.080;14.418;2022-08-25T01:53:48;13.25;;;9.18;;
73632;SDS011;61927;50.080;14.418;2022-08-25T01:56:15;17.27;;;9.63;;
73632;SDS011;61927;50.080;14.418;2022-08-25T01:58:45;13.25;;;10.38;;
73632;SDS011;61927;50.080;14.418;2022-08-25T02:01:17;20.85;;;9.38;;
73632;SDS011;61927;50.080;14.418;2022-08-25T02:03:46;13.15;;;9.65;;
73632;SDS011;61927;50.080;14.418;2022-08-25T02:06:18;13.82;;;10.40;;
73632;SDS011;61927;50.080;14.418;2022-08-25T02:08:56;18.45;;;10.88;;
73632;SDS011;61927;50.080;14.418;2022-08-25T02:11:25;15.52;;;10.00;;
73632;SDS011;61927;50.080;14.418;2022-08-25T02:13:52;12.77;;;9.52;;
73632;SDS011;61927;50.080;14.418;2022-08-25T02:16:19;17.20;;;9.50;;
73632;SDS011;61927;50.080;14.418;2022-08-25T02:18:47;15.68;;;9.45;;
73632;SDS011;61927;50.080;14.418;2022-08-25T02:21:13;17.67;;;10.30;;
73632;SDS011;61927;50.080;14.418;2022-08-25T02:23:39;11.48;;;9.15;;
73632;SDS011;61927;50.080;14.418;2022-08-25T02:26:06;15.18;;;8.88;;
73632;SDS011;61927;50.080;14.418;2022-08-25T02:28:34;13.70;;;9.32;;
73632;SDS011;61927;50.080;14.418;2022-08-25T02:30:59;10.77;;;8.77;;
73632;SDS011;61927;50.080;14.418;2022-08-25T02:33:25;13.80;;;9.40;;
73632;SDS011;61927;50.080;14.418;2022-08-25T02:35:51;11.40;;;9.07;;
73632;SDS011;61927;50.080;14.418;2022-08-25T02:38:16;13.82;;;8.73;;
73632;SDS011;61927;50.080;14.418;2022-08-25T02:40:42;10.68;;;8.65;;
73632;SDS011;61927;50.080;14.418;2022-08-25T02:43:08;9.93;;;8.18;;
73632;SDS011;61927;50.080;14.418;2022-08-25T02:45:34;20.73;;;9.25;;
73632;SDS011;61927;50.080;14.418;2022-08-25T02:48:01;17.13;;;9.80;;
73632;SDS011;61927;50.080;14.418;2022-08-25T02:50:27;14.82;;;9.20;;
73632;SDS011;61927;50.080;14.418;2022-08-25T02:52:53;16.48;;;8.85;;
73632;SDS011;61927;50.080;14.418;2022-08-25T02:55:19;16.80;;;8.63;;
73632;SDS011;61927;50.080;14.418;2022-08-25T02:57:45;11.23;;;8.90;;
73632;SDS011;61927;50.080;14.418;2022-08-25T03:00:13;13.00;;;8.90;;
73632;SDS011;61927;50.080;14.418;2022-08-25T03:02:40;20.65;;;8.73;;
73632;SDS011;61927;50.080;14.418;2022-08-25T03:05:06;12.23;;;8.90;;
73632;SDS011;61927;50.080;14.418;2022-08-25T03:07:34;10.77;;;8.68;;
73632;SDS011;61927;50.080;14.418;2022-08-25T03:10:08;12.65;;;8.90;;
73632;SDS011;61927;50.080;14.418;2022-08-25T03:12:39;11.13;;;8.27;;
73632;SDS011;61927;50.080;14.418;2022-08-25T03:15:06;9.77;;;8.32;;
73632;SDS011;61927;50.080;14.418;2022-08-25T03:17:35;14.52;;;8.38;;
73632;SDS011;61927;50.080;14.418;2022-08-25T03:20:02;12.23;;;8.35;;
73632;SDS011;61927;50.080;14.418;2022-08-25T03:22:29;11.38;;;8.32;;
73632;SDS011;61927;50.080;14.418;2022-08-25T03:24:55;12.15;;;8.57;;
73632;SDS011;61927;50.080;14.418;2022-08-25T03:27:41;11.77;;;8.85;;
73632;SDS011;61927;50.080;14.418;2022-08-25T03:30:06;10.85;;;8.68;;
73632;SDS011;61927;50.080;14.418;2022-08-25T03:32:32;12.07;;;8.40;;
73632;SDS011;61927;50.080;14.418;2022-08-25T03:34:58;14.75;;;8.73;;
73632;SDS011;61927;50.080;14.418;2022-08-25T03:37:26;15.27;;;8.82;;
73632;SDS011;61927;50.080;14.418;2022-08-25T03:39:51;13.68;;;9.68;;
73632;SDS011;61927;50.080;14.418;2022-08-25T03:42:17;10.73;;;7.95;;
73632;SDS011;61927;50.080;14.418;2022-08-25T03:44:43;10.52;;;7.82;;
73632;SDS011;61927;50.080;14.418;2022-08-25T03:47:09;11.40;;;8.40;;
73632;SDS011;61927;50.080;14.418;2022-08-25T03:49:35;12.00;;;8.43;;
73632;SDS011;61927;50.080;14.418;2022-08-25T03:52:01;13.10;;;8.35;;
73632;SDS011;61927;50.080;14.418;2022-08-25T03:54:27;12.43;;;8.30;;
73632;SDS011;61927;50.080;14.418;2022-08-25T03:56:53;9.82;;;7.93;;
73632;SDS011;61927;50.080;14.418;2022-08-25T03:59:19;9.25;;;8.20;;
73632;SDS011;61927;50.080;14.418;2022-08-25T04:01:45;14.02;;;8.40;;
73632;SDS011;61927;50.080;14.418;2022-08-25T04:04:12;12.05;;;8.55;;
73632;SDS011;61927;50.080;14.418;2022-08-25T04:06:39;14.02;;;9.10;;
73632;SDS011;61927;50.080;14.418;2022-08-25T04:09:06;14.98;;;9.02;;
73632;SDS011;61927;50.080;14.418;2022-08-25T04:11:32;14.73;;;9.10;;
73632;SDS011;61927;50.080;14.418;2022-08-25T04:13:58;11.63;;;9.05;;
73632;SDS011;61927;50.080;14.418;2022-08-25T04:16:26;13.63;;;9.48;;
73632;SDS011;61927;50.080;14.418;2022-08-25T04:18:54;12.63;;;9.82;;
73632;SDS011;61927;50.080;14.418;2022-08-25T04:21:20;12.88;;;10.13;;
73632;SDS011;61927;50.080;14.418;2022-08-25T04:23:47;13.52;;;10.52;;
73632;SDS011;61927;50.080;14.418;2022-08-25T04:26:15;19.33;;;10.70;;
73632;SDS011;61927;50.080;14.418;2022-08-25T04:28:43;14.50;;;10.80;;
73632;SDS011;61927;50.080;14.418;2022-08-25T04:31:09;15.52;;;11.07;;
73632;SDS011;61927;50.080;14.418;2022-08-25T04:33:37;16.38;;;11.18;;
73632;SDS011;61927;50.080;14.418;2022-08-25T04:36:03;23.95;;;10.77;;
73632;SDS011;61927;50.080;14.418;2022-08-25T04:38:30;16.20;;;10.50;;
73632;SDS011;61927;50.080;14.418;2022-08-25T04:40:57;19.58;;;11.52;;
73632;SDS011;61927;50.080;14.418;2022-08-25T04:43:23;22.48;;;15.02;;
73632;SDS011;61927;50.080;14.418;2022-08-25T04:45:49;23.05;;;11.68;;
73632;SDS011;61927;50.080;14.418;2022-08-25T04:48:15;18.45;;;11.40;;
73632;SDS011;61927;50.080;14.418;2022-08-25T04:50:40;20.25;;;13.65;;
73632;SDS011;61927;50.080;14.418;2022-08-25T04:53:06;19.75;;;12.27;;
73632;SDS011;61927;50.080;14.418;2022-08-25T04:55:31;15.73;;;12.20;;
73632;SDS011;61927;50.080;14.418;2022-08-25T04:57:57;25.33;;;17.25;;
73632;SDS011;61927;50.080;14.418;2022-08-25T05:00:22;15.60;;;11.57;;
73632;SDS011;61927;50.080;14.418;2022-08-25T05:02:48;17.17;;;11.15;;
73632;SDS011;61927;50.080;14.418;2022-08-25T05:05:14;20.55;;;13.43;;
73632;SDS011;61927;50.080;14.418;2022-08-25T05:07:40;16.67;;;11.55;;
73632;SDS011;61927;50.080;14.418;2022-08-25T05:10:06;14.52;;;10.30;;
73632;SDS011;61927;50.080;14.418;2022-08-25T05:12:32;15.75;;;10.70;;
73632;SDS011;61927;50.080;14.418;2022-08-25T05:14:58;17.92;;;11.10;;
73632;SDS011;61927;50.080;14.418;2022-08-25T05:17:43;16.25;;;10.30;;
73632;SDS011;61927;50.080;14.418;2022-08-25T05:20:09;16.98;;;10.63;;
73632;SDS011;61927;50.080;14.418;2022-08-25T05:22:34;17.92;;;10.85;;
73632;SDS011;61927;50.080;14.418;2022-08-25T05:25:00;18.02;;;11.07;;
73632;SDS011;61927;50.080;14.418;2022-08-25T05:27:25;13.15;;;10.93;;
73632;SDS011;61927;50.080;14.418;2022-08-25T05:29:51;14.52;;;10.82;;
73632;SDS011;61927;50.080;14.418;2022-08-25T05:32:16;15.68;;;11.55;;
73632;SDS011;61927;50.080;14.418;2022-08-25T05:34:42;15.77;;;11.23;;
73632;SDS011;61927;50.080;14.418;2022-08-25T05:37:07;20.58;;;11.05;;
73632;SDS011;61927;50.080;14.418;2022-08-25T05:39:33;17.27;;;11.35;;
73632;SDS011;61927;50.080;14.418;2022-08-25T05:41:58;22.35;;;11.43;;
73632;SDS011;61927;50.080;14.418;2022-08-25T05:44:24;23.90;;;11.73;;
73632;SDS011;61927;50.080;14.418;2022-08-25T05:46:50;21.00;;;11.65;;
73632;SDS011;61927;50.080;14.418;2022-08-25T05:49:16;22.63;;;11.40;;
73632;SDS011;61927;50.080;14.418;2022-08-25T05:51:42;15.95;;;10.70;;
73632;SDS011;61927;50.080;14.418;2022-08-25T05:54:07;20.63;;;10.35;;
73632;SDS011;61927;50.080;14.418;2022-08-25T05:56:33;17.25;;;11.27;;
73632;SDS011;61927;50.080;14.418;2022-08-25T05:58:58;20.52;;;11.32;;
73632;SDS011;61927;50.080;14.418;2022-08-25T06:01:26;19.15;;;11.05;;
73632;SDS011;61927;50.080;14.418;2022-08-25T06:04:14;15.95;;;10.82;;
73632;SDS011;61927;50.080;14.418;2022-08-25T06:06:41;17.45;;;11.77;;
73632;SDS011;61927;50.080;14.418;2022-08-25T06:09:07;23.27;;;12.55;;
73632;SDS011;61927;50.080;14.418;2022-08-25T06:11:36;27.92;;;17.17;;
73632;SDS011;61927;50.080;14.418;2022-08-25T06:14:04;21.15;;;12.23;;
73632;SDS011;61927;50.080;14.418;2022-08-25T06:16:29;20.63;;;12.70;;
73632;SDS011;61927;50.080;14.418;2022-08-25T06:18:55;17.38;;;12.93;;
73632;SDS011;61927;50.080;14.418;2022-08-25T06:21:20;22.65;;;12.55;;
73632;SDS011;61927;50.080;14.418;2022-08-25T06:23:46;18.80;;;11.85;;
73632;SDS011;61927;50.080;14.418;2022-08-25T06:26:13;18.63;;;12.23;;
73632;SDS011;61927;50.080;14.418;2022-08-25T06:28:39;20.42;;;12.40;;
73632;SDS011;61927;50.080;14.418;2022-08-25T06:31:05;24.40;;;12.10;;
73632;SDS011;61927;50.080;14.418;2022-08-25T06:33:31;20.55;;;12.75;;
73632;SDS011;61927;50.080;14.418;2022-08-25T06:35:56;16.95;;;11.90;;
73632;SDS011;61927;50.080;14.418;2022-08-25T06:38:22;23.33;;;13.32;;
73632;SDS011;61927;50.080;14.418;2022-08-25T06:40:48;25.42;;;12.98;;
73632;SDS011;61927;50.080;14.418;2022-08-25T06:43:17;28.77;;;13.07;;
73632;SDS011;61927;50.080;14.418;2022-08-25T06:45:44;31.33;;;13.73;;
73632;SDS011;61927;50.080;14.418;2022-08-25T06:48:09;16.13;;;12.48;;
73632;SDS011;61927;50.080;14.418;2022-08-25T06:50:38;21.17;;;11.85;;
73632;SDS011;61927;50.080;14.418;2022-08-25T06:53:05;25.75;;;13.35;;
73632;SDS011;61927;50.080;14.418;2022-08-25T06:55:31;19.50;;;12.63;;
73632;SDS011;61927;50.080;14.418;2022-08-25T06:57:58;24.45;;;13.63;;
73632;SDS011;61927;50.080;14.418;2022-08-25T07:00:24;21.75;;;13.55;;
73632;SDS011;61927;50.080;14.418;2022-08-25T07:02:49;24.65;;;13.90;;
73632;SDS011;61927;50.080;14.418;2022-08-25T07:05:15;23.00;;;14.57;;
73632;SDS011;61927;50.080;14.418;2022-08-25T07:07:41;22.90;;;14.70;;
73632;SDS011;61927;50.080;14.418;2022-08-25T07:10:09;34.83;;;14.02;;
73632;SDS011;61927;50.080;14.418;2022-08-25T07:12:35;30.80;;;15.05;;
73632;SDS011;61927;50.080;14.418;2022-08-25T07:15:00;40.17;;;15.00;;
73632;SDS011;61927;50.080;14.418;2022-08-25T07:17:25;26.02;;;14.75;;
73632;SDS011;61927;50.080;14.418;2022-08-25T07:19:51;22.50;;;14.35;;
73632;SDS011;61927;50.080;14.418;2022-08-25T07:22:17;28.83;;;15.02;;
73632;SDS011;61927;50.080;14.418;2022-08-25T07:24:42;37.85;;;14.63;;
73632;SDS011;61927;50.080;14.418;2022-08-25T07:27:08;25.42;;;14.05;;
73632;SDS011;61927;50.080;14.418;2022-08-25T07:29:33;23.58;;;14.57;;
73632;SDS011;61927;50.080;14.418;2022-08-25T07:32:03;24.52;;;14.05;;
73632;SDS011;61927;50.080;14.418;2022-08-25T07:34:30;22.92;;;14.02;;
73632;SDS011;61927;50.080;14.418;2022-08-25T07:37:15;28.27;;;15.13;;
73632;SDS011;61927;50.080;14.418;2022-08-25T07:39:40;24.70;;;15.18;;
73632;SDS011;61927;50.080;14.418;2022-08-25T07:42:06;25.77;;;15.32;;
73632;SDS011;61927;50.080;14.418;2022-08-25T07:44:32;26.05;;;13.77;;
73632;SDS011;61927;50.080;14.418;2022-08-25T07:46:58;23.38;;;13.48;;
73632;SDS011;61927;50.080;14.418;2022-08-25T07:49:24;21.35;;;13.43;;
73632;SDS011;61927;50.080;14.418;2022-08-25T07:51:51;28.52;;;14.75;;
73632;SDS011;61927;50.080;14.418;2022-08-25T07:54:18;32.67;;;17.08;;
73632;SDS011;61927;50.080;14.418;2022-08-25T07:56:44;27.95;;;14.85;;
73632;SDS011;61927;50.080;14.418;2022-08-25T07:59:10;37.53;;;13.82;;
73632;SDS011;61927;50.080;14.418;2022-08-25T08:01:35;26.88;;;11.57;;
73632;SDS011;61927;50.080;14.418;2022-08-25T08:04:01;24.88;;;13.75;;
73632;SDS011;61927;50.080;14.418;2022-08-25T08:06:27;27.70;;;13.68;;
73632;SDS011;61927;50.080;14.418;2022-08-25T08:08:53;36.20;;;13.27;;
73632;SDS011;61927;50.080;14.418;2022-08-25T08:11:21;34.38;;;13.80;;
73632;SDS011;61927;50.080;14.418;2022-08-25T08:13:52;20.05;;;11.05;;
73632;SDS011;61927;50.080;14.418;2022-08-25T08:16:21;36.15;;;12.93;;
73632;SDS011;61927;50.080;14.418;2022-08-25T08:18:50;21.45;;;11.20;;
73632;SDS011;61927;50.080;14.418;2022-08-25T08:21:20;27.00;;;10.65;;
73632;SDS011;61927;50.080;14.418;2022-08-25T08:23:48;21.02;;;10.82;;
73632;SDS011;61927;50.080;14.418;2022-08-25T08:26:15;26.40;;;10.93;;
73632;SDS011;61927;50.080;14.418;2022-08-25T08:28:41;28.17;;;9.45;;
73632;SDS011;61927;50.080;14.418;2022-08-25T08:31:07;27.13;;;9.07;;
73632;SDS011;61927;50.080;14.418;2022-08-25T08:33:33;32.25;;;8.85;;
73632;SDS011;61927;50.080;14.418;2022-08-25T08:36:00;22.10;;;9.00;;
73632;SDS011;61927;50.080;14.418;2022-08-25T08:38:27;28.55;;;10.05;;
73632;SDS011;61927;50.080;14.418;2022-08-25T08:41:02;21.88;;;10.30;;
73632;SDS011;61927;50.080;14.418;2022-08-25T08:44:01;25.05;;;9.95;;
73632;SDS011;61927;50.080;14.418;2022-08-25T08:46:39;25.65;;;8.60;;
73632;SDS011;61927;50.080;14.418;2022-08-25T08:49:17;26.95;;;9.20;;
73632;SDS011;61927;50.080;14.418;2022-08-25T08:51:53;39.45;;;9.65;;
73632;SDS011;61927;50.080;14.418;2022-08-25T08:54:23;30.02;;;9.02;;
73632;SDS011;61927;50.080;14.418;2022-08-25T08:57:04;25.50;;;8.18;;
73632;SDS011;61927;50.080;14.418;2022-08-25T08:59:39;17.02;;;7.50;;
73632;SDS011;61927;50.080;14.418;2022-08-25T09:02:13;26.90;;;7.57;;
73632;SDS011;61927;50.080;14.418;2022-08-25T09:04:46;35.35;;;9.85;;
73632;SDS011;61927;50.080;14.418;2022-08-25T09:07:21;21.27;;;7.60;;
73632;SDS011;61927;50.080;14.418;2022-08-25T09:09:54;26.65;;;8.82;;
73632;SDS011;61927;50.080;14.418;2022-08-25T09:15:27;37.38;;;8.10;;
73632;SDS011;61927;50.080;14.418;2022-08-25T09:18:41;31.65;;;8.13;;
73632;SDS011;61927;50.080;14.418;2022-08-25T09:21:19;26.45;;;7.93;;
73632;SDS011;61927;50.080;14.418;2022-08-25T09:29:21;43.42;;;10.85;;
73632;SDS011;61927;50.080;14.418;2022-08-25T09:31:52;42.83;;;8.65;;
73632;SDS011;61927;50.080;14.418;2022-08-25T09:34:22;21.73;;;8.93;;
73632;SDS011;61927;50.080;14.418;2022-08-25T09:36:52;32.00;;;8.15;;
73632;SDS011;61927;50.080;14.418;2022-08-25T09:39:18;37.35;;;8.40;;
73632;SDS011;61927;50.080;14.418;2022-08-25T09:44:25;31.40;;;7.95;;
73632;SDS011;61927;50.080;14.418;2022-08-25T09:47:06;36.05;;;8.80;;
73632;SDS011;61927;50.080;14.418;2022-08-25T09:49:43;38.75;;;7.75;;
73632;SDS011;61927;50.080;14.418;2022-08-25T09:54:43;31.60;;;8.50;;
73632;SDS011;61927;50.080;14.418;2022-08-25T09:57:09;27.40;;;8.38;;
73632;SDS011;61927;50.080;14.418;2022-08-25T09:59:56;46.65;;;8.20;;
73632;SDS011;61927;50.080;14.418;2022-08-25T10:02:34;53.03;;;9.57;;
73632;SDS011;61927;50.080;14.418;2022-08-25T10:05:03;49.13;;;8.45;;
73632;SDS011;61927;50.080;14.418;2022-08-25T10:07:48;51.38;;;8.60;;
73632;SDS011;61927;50.080;14.418;2022-08-25T10:10:21;60.22;;;9.50;;
73632;SDS011;61927;50.080;14.418;2022-08-25T10:12:51;58.13;;;8.55;;
73632;SDS011;61927;50.080;14.418;2022-08-25T10:15:18;49.92;;;9.00;;
73632;SDS011;61927;50.080;14.418;2022-08-25T10:17:46;60.90;;;9.60;;
73632;SDS011;61927;50.080;14.418;2022-08-25T10:20:14;51.38;;;9.50;;
73632;SDS011;61927;50.080;14.418;2022-08-25T10:22:46;57.47;;;10.30;;
73632;SDS011;61927;50.080;14.418;2022-08-25T10:25:14;45.58;;;8.90;;
73632;SDS011;61927;50.080;14.418;2022-08-25T10:39:16;39.53;;;7.30;;
73632;SDS011;61927;50.080;14.418;2022-08-25T10:56:43;49.95;;;8.27;;
73632;SDS011;61927;50.080;14.418;2022-08-25T10:59:27;53.03;;;10.07;;
73632;SDS011;61927;50.080;14.418;2022-08-25T11:07:34;42.47;;;7.72;;
73632;SDS011;61927;50.080;14.418;2022-08-25T11:10:05;42.97;;;8.15;;
73632;SDS011;61927;50.080;14.418;2022-08-25T11:12:36;51.65;;;8.43;;
73632;SDS011;61927;50.080;14.418;2022-08-25T11:15:14;44.10;;;9.38;;
73632;SDS011;61927;50.080;14.418;2022-08-25T11:17:47;35.83;;;8.88;;
73632;SDS011;61927;50.080;14.418;2022-08-25T11:20:22;41.75;;;8.07;;
73632;SDS011;61927;50.080;14.418;2022-08-25T11:25:37;27.38;;;7.63;;
73632;SDS011;61927;50.080;14.418;2022-08-25T11:28:08;36.40;;;8.23;;
73632;SDS011;61927;50.080;14.418;2022-08-25T11:30:38;32.30;;;7.65;;
73632;SDS011;61927;50.080;14.418;2022-08-25T11:33:04;48.33;;;8.98;;
73632;SDS011;61927;50.080;14.418;2022-08-25T11:35:35;39.13;;;7.38;;
73632;SDS011;61927;50.080;14.418;2022-08-25T11:38:16;46.03;;;7.20;;
73632;SDS011;61927;50.080;14.418;2022-08-25T11:41:26;38.30;;;7.60;;
73632;SDS011;61927;50.080;14.418;2022-08-25T11:52:05;42.45;;;7.45;;
73632;SDS011;61927;50.080;14.418;2022-08-25T11:54:53;46.33;;;8.45;;
73632;SDS011;61927;50.080;14.418;2022-08-25T11:57:23;48.92;;;9.15;;
73632;SDS011;61927;50.080;14.418;2022-08-25T12:10:22;45.63;;;7.10;;
73632;SDS011;61927;50.080;14.418;2022-08-25T12:12:58;29.98;;;7.00;;
73632;SDS011;61927;50.080;14.418;2022-08-25T12:15:59;42.58;;;7.97;;
73632;SDS011;61927;50.080;14.418;2022-08-25T12:26:01;84.10;;;11.02;;
73632;SDS011;61927;50.080;14.418;2022-08-25T12:31:28;173.93;;;20.02;;
73632;SDS011;61927;50.080;14.418;2022-08-25T12:37:15;40.70;;;8.10;;
73632;SDS011;61927;50.080;14.418;2022-08-25T12:40:01;53.92;;;8.40;;
73632;SDS011;61927;50.080;14.418;2022-08-25T12:42:31;39.28;;;6.70;;
73632;SDS011;61927;50.080;14.418;2022-08-25T12:45:30;37.83;;;7.32;;
73632;SDS011;61927;50.080;14.418;2022-08-25T12:48:38;42.55;;;7.40;;
73632;SDS011;61927;50.080;14.418;2022-08-25T12:56:04;49.55;;;7.88;;
73632;SDS011;61927;50.080;14.418;2022-08-25T13:01:47;61.22;;;24.67;;
73632;SDS011;61927;50.080;14.418;2022-08-25T13:06:57;45.63;;;8.13;;
73632;SDS011;61927;50.080;14.418;2022-08-25T13:12:45;35.20;;;7.50;;
73632;SDS011;61927;50.080;14.418;2022-08-25T13:15:32;33.78;;;8.00;;
73632;SDS011;61927;50.080;14.418;2022-08-25T13:20:59;32.13;;;7.05;;
73632;SDS011;61927;50.080;14.418;2022-08-25T13:23:28;45.40;;;7.82;;
73632;SDS011;61927;50.080;14.418;2022-08-25T13:25:55;42.10;;;7.57;;
73632;SDS011;61927;50.080;14.418;2022-08-25T13:28:27;36.80;;;7.07;;
73632;SDS011;61927;50.080;14.418;2022-08-25T13:31:00;42.13;;;7.28;;
73632;SDS011;61927;50.080;14.418;2022-08-25T13:33:28;51.42;;;7.10;;
73632;SDS011;61927;50.080;14.418;2022-08-25T13:35:56;38.75;;;7.97;;
73632;SDS011;61927;50.080;14.418;2022-08-25T13:38:41;42.50;;;7.55;;
73632;SDS011;61927;50.080;14.418;2022-08-25T13:41:09;34.55;;;7.35;;
73632;SDS011;61927;50.080;14.418;2022-08-25T13:43:35;35.92;;;8.07;;
73632;SDS011;61927;50.080;14.418;2022-08-25T13:46:03;42.90;;;7.78;;
73632;SDS011;61927;50.080;14.418;2022-08-25T13:48:31;43.47;;;7.53;;
73632;SDS011;61927;50.080;14.418;2022-08-25T13:51:14;49.92;;;7.75;;
73632;SDS011;61927;50.080;14.418;2022-08-25T13:53:59;46.03;;;9.20;;
73632;SDS011;61927;50.080;14.418;2022-08-25T13:56:29;40.67;;;8.55;;
73632;SDS011;61927;50.080;14.418;2022-08-25T13:59:00;34.45;;;6.80;;
73632;SDS011;61927;50.080;14.418;2022-08-25T14:01:28;32.17;;;6.15;;
73632;SDS011;61927;50.080;14.418;2022-08-25T14:04:19;26.05;;;6.50;;
73632;SDS011;61927;50.080;14.418;2022-08-25T14:12:27;47.53;;;7.10;;
73632;SDS011;61927;50.080;14.418;2022-08-25T14:15:05;33.53;;;6.88;;
73632;SDS011;61927;50.080;14.418;2022-08-25T14:17:33;44.15;;;7.13;;
73632;SDS011;61927;50.080;14.418;2022-08-25T14:20:01;38.92;;;7.32;;
73632;SDS011;61927;50.080;14.418;2022-08-25T14:22:26;33.45;;;7.07;;
73632;SDS011;61927;50.080;14.418;2022-08-25T14:24:52;40.03;;;7.15;;
73632;SDS011;61927;50.080;14.418;2022-08-25T14:27:19;27.60;;;7.15;;
73632;SDS011;61927;50.080;14.418;2022-08-25T14:29:44;33.45;;;6.13;;
73632;SDS011;61927;50.080;14.418;2022-08-25T14:32:10;42.63;;;6.75;;
73632;SDS011;61927;50.080;14.418;2022-08-25T14:34:38;43.85;;;7.57;;
73632;SDS011;61927;50.080;14.418;2022-08-25T14:37:14;80.05;;;9.65;;
73632;SDS011;61927;50.080;14.418;2022-08-25T14:39:42;41.55;;;6.78;;
73632;SDS011;61927;50.080;14.418;2022-08-25T14:42:09;34.92;;;6.13;;
73632;SDS011;61927;50.080;14.418;2022-08-25T14:44:35;44.17;;;7.32;;
73632;SDS011;61927;50.080;14.418;2022-08-25T14:47:01;45.45;;;8.30;;
73632;SDS011;61927;50.080;14.418;2022-08-25T14:49:28;38.33;;;6.82;;
73632;SDS011;61927;50.080;14.418;2022-08-25T14:52:08;29.45;;;6.43;;
73632;SDS011;61927;50.080;14.418;2022-08-25T14:54:40;32.40;;;7.90;;
73632;SDS011;61927;50.080;14.418;2022-08-25T14:57:06;46.33;;;7.32;;
73632;SDS011;61927;50.080;14.418;2022-08-25T14:59:31;51.42;;;6.55;;
73632;SDS011;61927;50.080;14.418;2022-08-25T15:01:57;40.30;;;6.65;;
73632;SDS011;61927;50.080;14.418;2022-08-25T15:04:24;46.63;;;8.38;;
73632;SDS011;61927;50.080;14.418;2022-08-25T15:06:54;42.22;;;7.15;;
73632;SDS011;61927;50.080;14.418;2022-08-25T15:09:22;31.73;;;8.20;;
73632;SDS011;61927;50.080;14.418;2022-08-25T15:11:49;41.13;;;7.05;;
73632;SDS011;61927;50.080;14.418;2022-08-25T15:14:17;44.60;;;7.40;;
73632;SDS011;61927;50.080;14.418;2022-08-25T15:16:45;28.52;;;6.22;;
73632;SDS011;61927;50.080;14.418;2022-08-25T15:19:15;43.75;;;7.63;;
73632;SDS011;61927;50.080;14.418;2022-08-25T15:21:42;35.65;;;6.95;;
73632;SDS011;61927;50.080;14.418;2022-08-25T15:24:10;29.67;;;5.90;;
73632;SDS011;61927;50.080;14.418;2022-08-25T15:26:42;43.53;;;7.47;;
73632;SDS011;61927;50.080;14.418;2022-08-25T15:31:35;32.22;;;6.22;;
73632;SDS011;61927;50.080;14.418;2022-08-25T15:34:01;30.92;;;5.85;;
73632;SDS011;61927;50.080;14.418;2022-08-25T15:36:26;38.40;;;6.53;;
73632;SDS011;61927;50.080;14.418;2022-08-25T15:38:52;29.35;;;5.80;;
73632;SDS011;61927;50.080;14.418;2022-08-25T15:41:18;36.47;;;5.65;;
73632;SDS011;61927;50.080;14.418;2022-08-25T15:43:45;38.35;;;6.75;;
73632;SDS011;61927;50.080;14.418;2022-08-25T15:46:10;38.92;;;6.97;;
73632;SDS011;61927;50.080;14.418;2022-08-25T15:48:39;40.70;;;6.50;;
73632;SDS011;61927;50.080;14.418;2022-08-25T15:51:05;33.63;;;6.57;;
73632;SDS011;61927;50.080;14.418;2022-08-25T15:53:33;35.60;;;6.95;;
73632;SDS011;61927;50.080;14.418;2022-08-25T15:55:59;32.85;;;6.55;;
73632;SDS011;61927;50.080;14.418;2022-08-25T15:58:25;29.92;;;6.25;;
73632;SDS011;61927;50.080;14.418;2022-08-25T16:00:51;37.90;;;7.03;;
73632;SDS011;61927;50.080;14.418;2022-08-25T16:03:17;30.88;;;7.57;;
73632;SDS011;61927;50.080;14.418;2022-08-25T16:05:43;32.45;;;6.40;;
73632;SDS011;61927;50.080;14.418;2022-08-25T16:08:09;32.03;;;7.15;;
73632;SDS011;61927;50.080;14.418;2022-08-25T16:10:36;45.00;;;8.80;;
73632;SDS011;61927;50.080;14.418;2022-08-25T16:13:03;32.33;;;5.65;;
73632;SDS011;61927;50.080;14.418;2022-08-25T16:15:30;33.80;;;6.32;;
73632;SDS011;61927;50.080;14.418;2022-08-25T16:17:58;25.33;;;6.70;;
73632;SDS011;61927;50.080;14.418;2022-08-25T16:20:26;35.50;;;7.00;;